Latest Weather Observations for Fort Denison

IDN60901

Issued at 5:31 am EDT Thursday 6 October 2022 (issued every 10 minutes, with the page automatically refreshed every 10 minutes)

About weather observations | Map of Sydney area stations | Latest observations for Sydney area | Other Formats
Station Details ID: 066022 Name: FORT DENISON Lat: -33.86 Lon: 151.23 Height: 5.0 m
Data from the previous 72 hours. | See also: Recent months for locations in New South Wales
Date/Time
EDT
Temp
°C
App
Temp
°C
Dew
Point
°C
Rel
Hum
%
Delta-T
°C
Wind Press
QNH
hPa
Press
MSL
hPa
Rain since
9am
mm
Dir  Spd
km/h
Gust
km/h
Spd
kts
Gust
kts
06/05:30am - - - - - ENE 32 39 17 21 - - -
06/05:00am - - - - - ENE 30 39 16 21 - - -
06/04:30am - - - - - E 28 39 15 21 - - -
06/04:22am - - - - - ENE 32 50 17 27 - - -
06/04:00am - - - - - E 28 39 15 21 - - -
06/03:30am - - - - - ENE 30 41 16 22 - - -
06/03:00am - - - - - ENE 28 39 15 21 - - -
06/02:30am - - - - - ENE 32 44 17 24 - - -
06/02:00am - - - - - E 32 41 17 22 - - -
06/01:30am - - - - - E 33 48 18 26 - - -
06/01:15am - - - - - E 33 52 18 28 - - -
06/01:00am - - - - - E 33 44 18 24 - - -
06/12:30am - - - - - E 37 52 20 28 - - -
06/12:00am - - - - - E 32 43 17 23 - - -
 
Date/Time
EDT
Temp
°C
App
Temp
°C
Dew
Point
°C
Rel
Hum
%
Delta-T
°C
Wind Press
QNH
hPa
Press
MSL
hPa
Rain since
9am
mm
Dir  Spd
km/h
Gust
km/h
Spd
kts
Gust
kts
05/11:30pm - - - - - E 33 43 18 23 - - -
05/11:00pm - - - - - E 35 43 19 23 - - -
05/10:30pm - - - - - E 35 50 19 27 - - -
05/10:00pm - - - - - E 35 43 19 23 - - -
05/09:30pm - - - - - E 35 43 19 23 - - -
05/09:00pm - - - - - E 35 44 19 24 - - -
05/08:30pm - - - - - E 35 44 19 24 - - -
05/08:00pm - - - - - E 33 41 18 22 - - -
05/07:30pm - - - - - E 32 41 17 22 - - -
05/07:00pm - - - - - E 33 41 18 22 - - -
05/06:30pm - - - - - ESE 33 44 18 24 - - -
05/06:00pm - - - - - E 35 43 19 23 - - -
05/05:30pm - - - - - E 30 39 16 21 - - -
05/05:00pm - - - - - E 35 46 19 25 - - -
05/04:30pm - - - - - E 32 41 17 22 - - -
05/04:00pm - - - - - E 33 46 18 25 - - -
05/03:30pm - - - - - E 28 39 15 21 - - -
05/03:00pm - - - - - ESE 33 43 18 23 - - -
05/02:30pm - - - - - E 33 41 18 22 - - -
05/02:00pm - - - - - E 33 43 18 23 - - -
05/01:30pm - - - - - E 32 39 17 21 - - -
05/01:00pm - - - - - E 20 32 11 17 - - -
05/12:30pm - - - - - E 32 50 17 27 - - -
05/12:25pm - - - - - E 28 50 15 27 - - -
05/12:00pm - - - - - E 28 35 15 19 - - -
05/11:30am - - - - - E 24 28 13 15 - - -
05/11:00am - - - - - E 24 28 13 15 - - -
05/10:30am - - - - - E 22 28 12 15 - - -
05/10:00am - - - - - E 24 28 13 15 - - -
05/09:30am - - - - - E 22 26 12 14 - - -
05/09:00am - - - - - E 22 28 12 15 - - -
05/08:30am - - - - - E 24 28 13 15 - - -
05/08:00am - - - - - ESE 24 30 13 16 - - -
05/07:30am - - - - - ESE 24 30 13 16 - - -
05/07:00am - - - - - ESE 24 32 13 17 - - -
05/06:30am - - - - - ESE 24 32 13 17 - - -
05/06:00am - - - - - ESE 22 33 12 18 - - -
05/05:30am - - - - - ESE 22 28 12 15 - - -
05/05:00am - - - - - SE 19 28 10 15 - - -
05/04:30am - - - - - SE 24 32 13 17 - - -
05/04:00am - - - - - SE 15 28 8 15 - - -
05/03:30am - - - - - SE 19 28 10 15 - - -
05/03:00am - - - - - SSE 15 26 8 14 - - -
05/02:30am - - - - - SE 20 37 11 20 - - -
05/02:00am - - - - - ESE 13 19 7 10 - - -
05/01:30am - - - - - ESE 11 17 6 9 - - -
05/01:00am - - - - - ESE 20 26 11 14 - - -
05/12:30am - - - - - ESE 11 15 6 8 - - -
05/12:00am - - - - - ESE 13 19 7 10 - - -
 
Date/Time
EDT
Temp
°C
App
Temp
°C
Dew
Point
°C
Rel
Hum
%
Delta-T
°C
Wind Press
QNH
hPa
Press
MSL
hPa
Rain since
9am
mm
Dir  Spd
km/h
Gust
km/h
Spd
kts
Gust
kts
04/11:30pm - - - - - ESE 15 19 8 10 - - -
04/11:00pm - - - - - ESE 13 20 7 11 - - -
04/10:30pm - - - - - SE 9 15 5 8 - - -
04/10:00pm - - - - - SE 6 11 3 6 - - -
04/09:30pm - - - - - SE 6 9 3 5 - - -
04/09:00pm - - - - - SE 6 9 3 5 - - -
04/08:30pm - - - - - SE 6 7 3 4 - - -
04/08:00pm - - - - - SE 6 11 3 6 - - -
04/07:30pm - - - - - SE 7 13 4 7 - - -
04/07:00pm - - - - - ESE 15 17 8 9 - - -
04/06:30pm - - - - - ESE 11 15 6 8 - - -
04/06:00pm - - - - - ESE 13 17 7 9 - - -
04/05:30pm - - - - - ESE 15 17 8 9 - - -
04/05:00pm - - - - - E 15 20 8 11 - - -
04/04:30pm - - - - - E 13 19 7 10 - - -
04/04:00pm - - - - - E 20 24 11 13 - - -
04/03:30pm - - - - - ENE 7 13 4 7 - - -
04/03:00pm - - - - - NE 15 20 8 11 - - -
04/02:30pm - - - - - NE 13 20 7 11 - - -
04/02:00pm - - - - - ENE 19 24 10 13 - - -
04/01:30pm - - - - - ENE 17 24 9 13 - - -
04/01:00pm - - - - - E 19 22 10 12 - - -
04/12:30pm - - - - - E 19 22 10 12 - - -
04/12:00pm - - - - - E 17 19 9 10 - - -
04/11:30am - - - - - E 13 17 7 9 - - -
04/11:00am - - - - - E 15 17 8 9 - - -
04/10:30am - - - - - WSW 4 4 2 2 - - -
04/10:00am - - - - - W 6 7 3 4 - - -
04/09:30am - - - - - W 7 9 4 5 - - -
04/09:00am - - - - - W 13 17 7 9 - - -
04/08:30am - - - - - WNW 13 17 7 9 - - -
04/08:00am - - - - - WNW 11 15 6 8 - - -
04/07:30am - - - - - WNW 13 19 7 10 - - -
04/07:00am - - - - - WNW 9 13 5 7 - - -
04/06:30am - - - - - W 13 15 7 8 - - -
04/06:00am - - - - - NW 7 15 4 8 - - -
04/05:30am - - - - - N 6 7 3 4 - - -
04/05:00am - - - - - N 4 6 2 3 - - -
04/04:30am - - - - - WNW 4 7 2 4 - - -
04/04:00am - - - - - WNW 7 9 4 5 - - -
04/03:30am - - - - - WNW 7 9 4 5 - - -
04/03:00am - - - - - WNW 6 7 3 4 - - -
04/02:30am - - - - - W 11 13 6 7 - - -
04/02:00am - - - - - WNW 11 15 6 8 - - -
04/01:30am - - - - - WNW 11 15 6 8 - - -
04/01:00am - - - - - WNW 15 19 8 10 - - -
04/12:30am - - - - - N 17 24 9 13 - - -
04/12:00am - - - - - N 15 22 8 12 - - -
 
Date/Time
EDT
Temp
°C
App
Temp
°C
Dew
Point
°C
Rel
Hum
%
Delta-T
°C
Wind Press
QNH
hPa
Press
MSL
hPa
Rain since
9am
mm
Dir  Spd
km/h
Gust
km/h
Spd
kts
Gust
kts
03/11:30pm - - - - - N 19 26 10 14 - - -
03/11:00pm - - - - - NNE 11 17 6 9 - - -
03/10:30pm - - - - - N 7 11 4 6 - - -
03/10:00pm - - - - - NNE 6 15 3 8 - - -
03/09:30pm - - - - - NNE 6 9 3 5 - - -
03/09:00pm - - - - - NNE 6 9 3 5 - - -
03/08:30pm - - - - - NE 6 11 3 6 - - -
03/08:00pm - - - - - NE 9 17 5 9 - - -
03/07:30pm - - - - - NE 11 20 6 11 - - -
03/07:00pm - - - - - NE 13 24 7 13 - - -
03/06:30pm - - - - - NE 15 22 8 12 - - -
03/06:00pm - - - - - ENE 20 26 11 14 - - -
03/05:30pm - - - - - ENE 20 26 11 14 - - -
03/05:00pm - - - - - ENE 22 26 12 14 - - -
03/04:30pm - - - - - ENE 22 28 12 15 - - -
03/04:00pm - - - - - E 22 26 12 14 - - -
03/03:30pm - - - - - E 20 26 11 14 - - -
03/03:00pm - - - - - E 19 22 10 12 - - -
03/02:30pm - - - - - E 17 20 9 11 - - -
03/02:00pm - - - - - E 17 20 9 11 - - -
03/01:30pm - - - - - E 17 19 9 10 - - -
03/01:00pm - - - - - ESE 15 19 8 10 - - -
03/12:30pm - - - - - E 13 17 7 9 - - -
03/12:00pm - - - - - ESE 4 7 2 4 - - -
03/11:30am - - - - - ENE 6 7 3 4 - - -
03/11:00am - - - - - WNW 6 9 3 5 - - -
03/10:30am - - - - - NW 9 11 5 6 - - -
03/10:00am - - - - - WNW 13 17 7 9 - - -
03/09:30am - - - - - WNW 15 19 8 10 - - -
03/09:00am - - - - - WNW 15 17 8 9 - - -
03/08:30am - - - - - W 15 19 8 10 - - -
03/08:00am - - - - - W 20 22 11 12 - - -
03/07:30am - - - - - WNW 17 19 9 10 - - -
03/07:00am - - - - - WNW 15 17 8 9 - - -
03/06:30am - - - - - W 9 13 5 7 - - -
03/06:00am - - - - - WNW 9 13 5 7 - - -

Latest Capital City Observations: Canberra | Sydney | Melbourne | Brisbane | Adelaide | Perth | Hobart | Darwin

Other formats

Comma delimited format used in spreadsheet applications
http://www.bom.gov.au/fwo/IDN60901/IDN60901.94769.axf

JavaScript Object Notation format (JSON) in row-major order
http://www.bom.gov.au/fwo/IDN60901/IDN60901.94769.json

Data quality

Most of these data are generated automatically and are frequently updated. Quality checks on data are not normally performed. It is possible for incorrect values to appear. Refer to information at About Latest Weather Observations and please check the disclaimer before using these data.